Weather reports worldwide

Advertisment
Bramham, United Kingdom (99077): temperature & dewpoint: 04.07.2020 05:00:00 - 10.07.2020 05:00:00 (BST)Bramham, United Kingdom (99077): wind speed & gusts: 04.07.2020 05:00:00 - 10.07.2020 05:00:00 (BST)Bramham, United Kingdom (99077): wind direction: 04.07.2020 05:00:00 - 10.07.2020 05:00:00 (BST)Bramham, United Kingdom (99077): precipitation: 04.07.2020 05:00:00 - 10.07.2020 05:00:00 (BST)
Date & Time tt [°C] td [°C] ff [km/h] ff [kn] fx [km/h] fx [kn] dd rr [mm]
10.07.2020 05:00:00 - - - - - - - -
10.07.2020 04:00:00 10,8 10,7 4 2 - - SW 0,0
10.07.2020 03:00:00 10,0 9,7 2 1 - - SW 0,0
10.07.2020 02:00:00 11,1 10,9 4 2 - - WSW 0,0
10.07.2020 01:00:00 11,2 11,1 5 3 - - W 0,0
10.07.2020 00:00:00 11,3 11,2 5 3 - - W 0,0
09.07.2020 23:00:00 11,4 11,3 5 3 - - NW 0,0
09.07.2020 22:00:00 11,6 11,4 4 2 - - WNW 0,2
09.07.2020 21:00:00 11,7 11,4 5 3 - - NNE 1,4
09.07.2020 20:00:00 11,9 11,5 9 5 - - NNE 0,2
09.07.2020 19:00:00 12,2 11,8 8 4 - - NE 0,4
09.07.2020 18:00:00 12,1 11,5 8 4 - - ENE 0,4
09.07.2020 17:00:00 12,7 11,7 11 6 - - NE 0,0
09.07.2020 16:00:00 12,3 11,5 15 8 - - ENE 0,0
09.07.2020 15:00:00 13,1 11,4 11 6 - - NNE 0,0
09.07.2020 14:00:00 13,0 11,8 9 5 - - NNE 0,0
09.07.2020 13:00:00 12,7 11,9 16 9 - - NE 0,2
09.07.2020 12:00:00 12,3 12,0 11 6 - - NNE 0,2
09.07.2020 11:00:00 11,6 11,4 11 6 - - NNE 0,0
09.07.2020 10:00:00 11,3 11,3 15 8 - - NNE 0,2
09.07.2020 09:00:00 10,5 10,5 15 8 - - N 0,6
09.07.2020 08:00:00 10,3 10,3 15 8 - - NNE 0,4
09.07.2020 07:00:00 10,4 10,4 13 7 - - NNE 1,0
09.07.2020 06:00:00 10,1 10,1 13 7 - - NNE 0,6
09.07.2020 05:00:00 9,9 9,8 13 7 - - NE 3,4
09.07.2020 04:00:00 10,0 9,9 15 8 - - NE 4,0
09.07.2020 03:00:00 10,2 10,1 18 10 - - NE 3,2
09.07.2020 02:00:00 10,7 10,6 18 10 - - ENE 3,0
09.07.2020 01:00:00 10,8 10,7 16 9 - - ENE 1,0
09.07.2020 00:00:00 11,3 11,1 18 10 - - ENE 2,6
08.07.2020 23:00:00 11,6 11,4 15 8 - - ENE 1,6
08.07.2020 22:00:00 11,7 11,3 13 7 - - ENE 2,4
08.07.2020 21:00:00 12,0 11,1 11 6 - - E 0,4
08.07.2020 20:00:00 13,1 10,6 18 10 - - E 0,0
08.07.2020 19:00:00 13,4 10,5 15 8 - - ENE 0,0
08.07.2020 18:00:00 14,2 10,0 15 8 - - ESE 0,0
08.07.2020 17:00:00 14,6 10,5 15 8 - - ESE 0,0
08.07.2020 16:00:00 14,9 9,8 16 9 - - ESE 0,0
08.07.2020 15:00:00 16,2 10,0 16 9 - - E 0,0
08.07.2020 14:00:00 16,1 10,7 16 9 - - E 0,0
08.07.2020 13:00:00 15,7 10,8 15 8 - - ESE 0,0
08.07.2020 12:00:00 14,9 10,9 13 7 - - E 0,0
08.07.2020 11:00:00 14,6 11,7 11 6 - - E 0,0
08.07.2020 10:00:00 14,1 12,2 9 5 - - ENE 0,0
08.07.2020 09:00:00 13,1 12,0 9 5 - - NE 0,0
08.07.2020 08:00:00 12,2 12,1 9 5 - - NNE 0,0
08.07.2020 07:00:00 11,7 11,6 8 4 - - NNE 0,2
08.07.2020 06:00:00 11,2 11,1 5 3 - - N 0,0
08.07.2020 05:00:00 10,9 10,8 8 4 - - N 0,0
08.07.2020 04:00:00 10,9 10,8 8 4 - - NNE 0,2
08.07.2020 03:00:00 11,1 10,9 5 3 - - ENE 0,8
08.07.2020 02:00:00 11,2 10,9 5 3 - - E 0,2
08.07.2020 01:00:00 11,3 11,0 5 3 - - SSE 0,4
08.07.2020 00:00:00 11,4 10,9 8 4 - - SE 0,0
07.07.2020 23:00:00 11,7 11,1 5 3 - - S 0,0
07.07.2020 22:00:00 11,9 11,3 5 3 - - SSE 0,0
07.07.2020 21:00:00 12,1 10,5 5 3 - - SE 0,0
07.07.2020 20:00:00 12,6 10,4 8 4 - - SSW 0,0
07.07.2020 19:00:00 13,1 11,0 4 2 - - WSW 0,0
07.07.2020 18:00:00 12,8 10,8 8 4 - - SW 0,0
07.07.2020 17:00:00 12,8 11,3 8 4 - - SW 0,2
07.07.2020 16:00:00 12,3 11,0 9 5 - - SW 0,8
07.07.2020 15:00:00 13,0 11,5 11 6 - - SSW 0,8
07.07.2020 14:00:00 13,3 9,4 9 5 - - SW 0,0
07.07.2020 13:00:00 14,1 10,6 9 5 - - SW 0,0
07.07.2020 12:00:00 12,8 10,8 15 8 - - SW 0,6
07.07.2020 11:00:00 14,0 9,7 11 6 - - SSW 0,0
07.07.2020 10:00:00 14,5 9,3 13 7 - - WSW 0,0
07.07.2020 09:00:00 14,7 9,1 13 7 - - WSW 0,0
07.07.2020 08:00:00 14,1 9,4 13 7 - - WSW 0,0
07.07.2020 07:00:00 13,0 10,3 13 7 - - SW 0,0
07.07.2020 06:00:00 11,3 9,6 9 5 - - WSW 0,0
07.07.2020 05:00:00 11,5 9,5 9 5 - - SW 0,0
07.07.2020 04:00:00 11,0 8,9 11 6 - - WSW 0,0
07.07.2020 03:00:00 11,1 8,6 13 7 - - WSW 0,0
07.07.2020 02:00:00 11,2 8,7 11 6 - - WSW 0,0
07.07.2020 01:00:00 11,5 8,1 15 8 - - W 0,0
07.07.2020 00:00:00 11,2 8,1 15 8 - - W 0,0
06.07.2020 23:00:00 11,9 7,9 16 9 - - W 0,0
06.07.2020 22:00:00 12,5 7,8 18 10 - - W 0,0
06.07.2020 21:00:00 14,0 8,2 21 11 - - W 0,0
06.07.2020 20:00:00 15,5 7,6 29 16 46 25 W 0,0
06.07.2020 19:00:00 16,8 8,3 24 13 - - W 0,0
06.07.2020 18:00:00 18,1 8,3 26 14 - - W 0,0
06.07.2020 17:00:00 18,5 9,3 22 12 - - W 0,0
06.07.2020 16:00:00 17,7 10,2 22 12 - - W 0,0
06.07.2020 15:00:00 17,3 9,8 18 10 - - W 0,0
06.07.2020 14:00:00 16,9 10,3 16 9 - - W 0,0
06.07.2020 13:00:00 16,6 11,0 13 7 - - W 0,0
06.07.2020 12:00:00 15,6 9,3 11 6 - - WNW 0,0
06.07.2020 11:00:00 16,4 9,1 22 12 - - WNW 0,0
06.07.2020 10:00:00 16,0 12,0 22 12 - - W 0,0
06.07.2020 09:00:00 13,2 10,7 24 13 - - W 0,2
06.07.2020 08:00:00 13,6 10,4 29 16 48 26 W 0,0
06.07.2020 07:00:00 11,7 9,0 24 13 - - W 0,0
06.07.2020 06:00:00 11,1 8,5 15 8 - - W 0,0
06.07.2020 05:00:00 11,0 8,8 24 13 - - W 0,0
06.07.2020 04:00:00 10,7 8,8 18 10 - - W 0,0
06.07.2020 03:00:00 10,9 8,5 29 16 48 26 W 0,0
06.07.2020 02:00:00 10,8 8,6 21 11 - - W 0,0
06.07.2020 01:00:00 11,3 9,0 24 13 - - WSW 0,0
06.07.2020 00:00:00 11,4 9,1 28 15 - - WSW 0,0
05.07.2020 23:00:00 11,4 9,7 21 11 54 29 W 0,4
05.07.2020 22:00:00 11,9 9,7 28 15 55 30 WSW 2,0
05.07.2020 21:00:00 12,3 9,7 29 16 65 35 WSW 0,4
05.07.2020 20:00:00 14,1 8,1 35 19 78 42 SW 0,0
05.07.2020 19:00:00 13,8 9,5 31 17 61 33 WSW 0,0
05.07.2020 18:00:00 16,0 9,2 29 16 52 28 WSW 0,0
05.07.2020 17:00:00 12,4 9,7 31 17 81 44 WSW 0,4
05.07.2020 16:00:00 16,9 7,2 42 23 70 38 WSW 0,0
05.07.2020 15:00:00 17,1 7,7 37 20 59 32 WSW 0,0
05.07.2020 14:00:00 16,8 7,6 41 22 72 39 WSW 0,0
05.07.2020 13:00:00 15,8 8,5 29 16 61 33 W 0,0
05.07.2020 12:00:00 16,0 8,8 37 20 61 33 WSW 0,0
05.07.2020 11:00:00 15,2 8,3 37 20 67 36 WSW 0,0
05.07.2020 10:00:00 14,9 9,1 31 17 65 35 W 0,0
05.07.2020 09:00:00 14,7 8,6 35 19 57 31 WSW 0,0
05.07.2020 08:00:00 14,4 9,7 29 16 57 31 WSW 0,0
05.07.2020 07:00:00 14,5 10,8 35 19 72 39 WSW 0,0
05.07.2020 06:00:00 15,7 11,2 34 18 61 33 WSW 0,0
05.07.2020 05:00:00 16,4 12,1 34 18 65 35 WSW 0,2
05.07.2020 04:00:00 16,4 14,7 26 14 50 27 SW 0,0
05.07.2020 03:00:00 16,0 14,9 28 15 52 28 SW 0,0
05.07.2020 02:00:00 16,1 14,8 29 16 50 27 SSW 0,0
05.07.2020 01:00:00 17,0 14,5 28 15 - - SSW 0,0
05.07.2020 00:00:00 16,5 14,5 26 14 50 27 S 0,0
04.07.2020 23:00:00 17,0 14,1 21 11 - - S 0,0
04.07.2020 22:00:00 17,1 14,0 22 12 - - SSW 0,0
04.07.2020 21:00:00 17,3 14,1 21 11 - - SSW 0,0
04.07.2020 20:00:00 17,3 14,1 18 10 - - SW 0,0
04.07.2020 19:00:00 17,9 14,3 21 11 - - SW 0,0
04.07.2020 18:00:00 18,2 14,1 22 12 - - SW 0,0
04.07.2020 17:00:00 18,6 14,3 22 12 - - SW 0,0
04.07.2020 16:00:00 18,3 15,1 13 7 - - W 0,0
04.07.2020 15:00:00 18,7 15,1 21 11 - - SSW 0,0
04.07.2020 14:00:00 18,6 15,0 21 11 - - SW 0,0
04.07.2020 13:00:00 17,8 14,7 18 10 - - SW 0,0
04.07.2020 12:00:00 18,4 14,9 22 12 - - SW 0,0
04.07.2020 11:00:00 18,3 14,9 22 12 - - SW 0,0
04.07.2020 10:00:00 17,7 14,9 22 12 - - SW 0,0
04.07.2020 09:00:00 16,5 14,7 15 8 - - SW 0,2
04.07.2020 08:00:00 16,1 14,1 24 13 - - SW 0,0
04.07.2020 07:00:00 15,9 14,2 21 11 - - SW 0,0
04.07.2020 06:00:00 16,0 14,2 18 10 - - SW 0,0
04.07.2020 05:00:00 15,9 14,3 13 7 - - SSW 0,0

tt = temperature
td = dewpoint
ff = wind speed
fx = gusts
dd = wind direction
rr = precipitation

Next stations